Time;durP1;ratioP1;P1;durP2;ratioP2;P2;SDS_P1;SDS_P2;PMS_P1;PMS_P2;Temp;Humidity;BMP_temperature;BMP_pressure;BME280_temperature;BME280_humidity;BME280_pressure;Samples;Min_cycle;Max_cycle;Signal;HPM_P1;HPM_P2
2021/03/29 00:01:00;;;;;;;9.63;2.23;;;;;;;11.57;100.00;102444.09;1835969;78;26708;-81
2021/03/29 00:03:30;;;;;;;13.50;2.80;;;;;;;11.60;100.00;102451.92;1835921;78;26211;-81
2021/03/29 00:06:01;;;;;;;7.87;2.50;;;;;;;11.55;100.00;102451.28;1836355;78;26253;-81
2021/03/29 00:08:33;;;;;;;10.47;2.83;;;;;;;11.61;100.00;102443.87;1836049;78;26188;-81
2021/03/29 00:11:05;;;;;;;8.33;2.90;;;;;;;11.61;100.00;102447.50;1836270;78;26278;-81
2021/03/29 00:13:35;;;;;;;7.33;2.33;;;;;;;11.59;100.00;102456.67;1835903;78;26662;-81
2021/03/29 00:16:08;;;;;;;8.23;2.57;;;;;;;11.60;100.00;102449.14;1836079;78;26341;-80
2021/03/29 00:18:38;;;;;;;11.47;2.73;;;;;;;11.58;100.00;102453.59;1836021;78;26195;-80
2021/03/29 00:21:10;;;;;;;8.13;2.40;;;;;;;11.54;100.00;102450.17;1836225;78;26281;-80
2021/03/29 00:23:41;;;;;;;10.87;2.80;;;;;;;11.54;100.00;102455.73;1835973;76;26309;-79
2021/03/29 00:26:12;;;;;;;9.17;2.63;;;;;;;11.58;100.00;102456.91;1835929;78;26212;-80
2021/03/29 00:28:42;;;;;;;7.57;2.83;;;;;;;11.62;100.00;102455.31;1836060;78;26188;-81
2021/03/29 00:31:12;;;;;;;11.27;3.20;;;;;;;11.63;100.00;102450.89;1836171;78;26593;-81
2021/03/29 00:33:44;;;;;;;10.80;3.30;;;;;;;11.60;100.00;102447.75;1835974;78;26207;-81
2021/03/29 00:36:16;;;;;;;10.77;3.17;;;;;;;11.61;100.00;102450.29;1836077;78;26180;-81
2021/03/29 00:38:47;;;;;;;10.70;2.93;;;;;;;11.65;100.00;102447.30;1835956;78;26235;-82
2021/03/29 00:41:18;;;;;;;8.47;2.93;;;;;;;11.61;100.00;102446.11;1835947;78;26705;-82
2021/03/29 00:43:50;;;;;;;11.90;3.00;;;;;;;11.57;100.00;102449.11;1835916;78;26265;-82
2021/03/29 00:46:22;;;;;;;12.07;3.00;;;;;;;11.57;100.00;102449.66;1835972;78;26261;-82
2021/03/29 00:48:53;;;;;;;8.13;2.97;;;;;;;11.61;100.00;102451.68;1835933;78;26188;-82
2021/03/29 00:51:25;;;;;;;8.00;2.60;;;;;;;11.60;100.00;102458.34;1873744;76;26280;-82
2021/03/29 00:53:57;;;;;;;8.60;3.50;;;;;;;11.64;100.00;102458.13;1873574;76;26210;-80
2021/03/29 00:56:29;;;;;;;10.17;2.80;;;;;;;11.63;100.00;102450.05;1873545;75;26199;-81
2021/03/29 00:59:00;;;;;;;9.90;2.57;;;;;;;11.62;100.00;102450.59;1869369;77;26248;-80
2021/03/29 01:01:33;;;;;;;9.63;3.23;;;;;;;11.65;100.00;102447.84;1871419;76;26263;-81
2021/03/29 01:04:04;;;;;;;10.47;3.20;;;;;;;11.63;100.00;102452.28;1806080;78;26227;-81
2021/03/29 01:06:37;;;;;;;11.23;2.80;;;;;;;11.74;100.00;102447.20;1806338;79;26716;-81
2021/03/29 01:09:10;;;;;;;11.70;2.90;;;;;;;11.69;100.00;102453.19;1806569;79;26203;-82
2021/03/29 01:11:43;;;;;;;9.40;3.10;;;;;;;11.68;100.00;102450.95;1806232;79;26264;-81
2021/03/29 01:14:15;;;;;;;11.33;2.97;;;;;;;11.60;100.00;102443.57;1805986;79;26288;-81
2021/03/29 01:16:48;;;;;;;9.17;3.00;;;;;;;11.64;100.00;102450.32;1806201;79;26702;-80
2021/03/29 01:19:23;;;;;;;11.20;3.10;;;;;;;11.64;100.00;102443.36;1806076;79;26204;-81
2021/03/29 01:22:06;;;;;;;9.03;3.20;;;;;;;11.65;100.00;102443.11;1818524;77;26214;-80
2021/03/29 01:24:41;;;;;;;12.20;3.10;;;;;;;11.67;100.00;102449.28;1835959;77;26295;-81
2021/03/29 01:27:12;;;;;;;12.97;3.37;;;;;;;11.64;100.00;102453.95;1836308;77;26627;-81
2021/03/29 01:29:43;;;;;;;7.83;3.27;;;;;;;11.63;100.00;102444.48;1836039;78;26262;-80
2021/03/29 01:32:15;;;;;;;6.83;3.20;;;;;;;11.59;100.00;102456.67;1836141;78;26623;-80
2021/03/29 01:34:46;;;;;;;8.93;3.17;;;;;;;11.62;100.00;102449.74;1836164;78;26289;-79
2021/03/29 01:37:17;;;;;;;12.87;3.77;;;;;;;11.56;100.00;102448.81;1836162;78;26243;-80
2021/03/29 01:39:48;;;;;;;11.43;3.97;;;;;;;11.45;100.00;102431.66;1836179;78;26254;-80
2021/03/29 01:42:20;;;;;;;11.13;3.33;;;;;;;11.55;100.00;102433.77;1836077;78;26188;-79
2021/03/29 01:44:51;;;;;;;8.37;3.27;;;;;;;11.53;100.00;102447.08;1835966;78;26600;-80
2021/03/29 01:47:21;;;;;;;13.07;3.23;;;;;;;11.58;100.00;102443.84;1836080;78;26336;-80
2021/03/29 01:49:53;;;;;;;9.47;3.53;;;;;;;11.60;100.00;102445.81;1836255;78;26191;-81
2021/03/29 01:52:23;;;;;;;9.60;3.40;;;;;;;11.48;100.00;102433.92;1836293;78;26277;-80
2021/03/29 01:54:53;;;;;;;11.63;3.63;;;;;;;11.49;100.00;102442.58;1836079;78;26647;-81
2021/03/29 01:57:23;;;;;;;11.30;2.97;;;;;;;11.53;100.00;102443.75;1836191;78;26200;-84
2021/03/29 01:59:53;;;;;;;12.97;3.30;;;;;;;11.57;100.00;102435.19;1836177;78;26278;-84
2021/03/29 02:02:23;;;;;;;9.63;3.33;;;;;;;11.53;100.00;102451.26;1836108;78;26215;-83
2021/03/29 02:04:55;;;;;;;10.70;3.63;;;;;;;11.49;100.00;102448.14;1836256;78;26652;-83
2021/03/29 02:07:25;;;;;;;10.63;3.77;;;;;;;11.57;100.00;102442.70;1836106;78;26184;-83
2021/03/29 02:09:55;;;;;;;12.00;3.70;;;;;;;11.53;100.00;102443.75;1836194;78;26188;-81
2021/03/29 02:12:26;;;;;;;13.43;3.60;;;;;;;11.53;100.00;102441.52;1836150;78;26261;-81
2021/03/29 02:14:56;;;;;;;8.93;3.23;;;;;;;11.53;100.00;102442.36;1836104;78;26285;-80
2021/03/29 02:17:27;;;;;;;9.73;3.87;;;;;;;11.50;100.00;102452.63;1836327;77;26955;-81
2021/03/29 02:19:58;;;;;;;12.27;3.53;;;;;;;11.49;100.00;102446.75;1836275;78;26784;-81
2021/03/29 02:22:30;;;;;;;5.97;3.30;;;;;;;11.51;100.00;102436.19;1836220;78;26199;-80
2021/03/29 02:25:00;;;;;;;12.87;3.83;;;;;;;11.45;100.00;102444.18;1836034;76;26318;-80
2021/03/29 02:27:30;;;;;;;10.90;3.73;;;;;;;11.50;100.00;102438.70;1861024;76;26656;-80
2021/03/29 02:30:00;;;;;;;9.33;3.20;;;;;;;11.53;100.00;102434.02;1873381;76;26288;-80
2021/03/29 02:32:30;;;;;;;9.13;3.40;;;;;;;11.55;100.00;102432.38;1875792;75;26202;-79
2021/03/29 02:35:00;;;;;;;7.77;3.37;;;;;;;11.54;100.00;102436.25;1871973;75;26214;-79
2021/03/29 02:37:30;;;;;;;11.90;3.90;;;;;;;11.50;100.00;102434.53;1875499;76;26294;-81
2021/03/29 02:40:00;;;;;;;10.97;3.70;;;;;;;11.52;100.00;102436.50;1872226;76;26194;-80
2021/03/29 02:42:30;;;;;;;12.60;3.53;;;;;;;11.47;100.00;102449.50;1870475;76;26202;-80
2021/03/29 02:45:00;;;;;;;9.03;3.50;;;;;;;11.49;100.00;102441.19;1877277;75;26272;-81
2021/03/29 02:47:31;;;;;;;5.87;3.17;;;;;;;11.55;100.00;102433.20;1869474;75;26194;-81
2021/03/29 02:50:05;;;;;;;8.47;3.63;;;;;;;11.57;100.00;102431.56;1869465;77;26272;-80
2021/03/29 02:52:35;;;;;;;7.47;3.23;;;;;;;11.58;100.00;102438.83;1869656;75;26198;-81
2021/03/29 02:55:09;;;;;;;12.47;3.33;;;;;;;11.54;100.00;102439.89;1869586;76;26202;-80
2021/03/29 02:57:42;;;;;;;10.33;3.53;;;;;;;11.50;100.00;102439.25;1869757;77;26291;-80
2021/03/29 03:00:16;;;;;;;14.27;3.30;;;;;;;11.50;100.00;102437.31;1872969;76;26256;-81
2021/03/29 03:02:46;;;;;;;9.97;3.37;;;;;;;11.49;100.00;102437.02;1874683;75;26634;-81
2021/03/29 03:05:18;;;;;;;12.87;4.17;;;;;;;11.50;100.00;102432.29;1869736;76;26202;-81
2021/03/29 03:07:49;;;;;;;10.07;3.57;;;;;;;11.43;100.00;102440.25;1869584;77;26198;-80
2021/03/29 03:10:19;;;;;;;11.07;3.40;;;;;;;11.45;100.00;102441.94;1874016;76;26198;-80
2021/03/29 03:12:50;;;;;;;12.40;3.30;;;;;;;11.48;100.00;102438.64;1870248;76;26288;-82
2021/03/29 03:15:23;;;;;;;13.13;3.83;;;;;;;11.46;100.00;102432.50;1872812;76;26637;-81
2021/03/29 03:17:55;;;;;;;10.67;3.93;;;;;;;11.50;100.00;102448.98;1869647;76;26280;-81
2021/03/29 03:20:26;;;;;;;9.20;3.13;;;;;;;11.52;100.00;102448.17;1869728;76;26267;-82
2021/03/29 03:22:57;;;;;;;11.30;3.43;;;;;;;11.41;100.00;102457.76;1869624;76;26202;-81
2021/03/29 03:25:30;;;;;;;11.77;3.33;;;;;;;11.40;100.00;102458.84;1869802;75;26552;-81
2021/03/29 03:28:02;;;;;;;10.97;3.43;;;;;;;11.41;100.00;102459.15;1875274;76;26214;-81
2021/03/29 03:30:33;;;;;;;10.07;3.70;;;;;;;11.34;100.00;102461.23;1875927;76;26669;-82
2021/03/29 03:33:05;;;;;;;9.03;3.50;;;;;;;11.38;100.00;102458.81;1875932;76;26271;-83
2021/03/29 03:35:37;;;;;;;6.23;3.00;;;;;;;11.33;100.00;102459.56;1876027;76;26202;-82
2021/03/29 03:38:12;;;;;;;8.73;3.13;;;;;;;11.37;100.00;102466.31;1859739;76;26206;-82
2021/03/29 03:40:45;;;;;;;7.43;3.50;;;;;;;11.32;100.00;102462.05;1858009;76;26641;-82
2021/03/29 03:43:35;;;;;;;10.83;3.40;;;;;;;11.36;100.00;102463.77;1819165;78;33066;-83
2021/03/29 03:46:08;;;;;;;11.87;3.47;;;;;;;11.38;100.00;102458.23;1819710;78;26740;-84
2021/03/29 03:48:40;;;;;;;8.83;2.80;;;;;;;11.37;100.00;102466.86;1819651;78;26245;-83
2021/03/29 03:51:11;;;;;;;7.40;2.90;;;;;;;11.37;100.00;102464.92;1819633;78;26802;-83
2021/03/29 03:53:42;;;;;;;9.33;3.43;;;;;;;11.38;100.00;102469.94;1819546;78;26222;-82
2021/03/29 03:56:13;;;;;;;10.23;3.40;;;;;;;11.33;100.00;102476.80;1819583;78;26218;-82
2021/03/29 03:58:44;;;;;;;10.60;3.57;;;;;;;11.31;100.00;102472.88;1819556;78;26682;-82
2021/03/29 04:01:14;;;;;;;15.83;4.33;;;;;;;11.36;100.00;102478.53;1807721;78;934756;-81
2021/03/29 04:03:44;;;;;;;10.33;3.00;;;;;;;11.34;100.00;102481.25;1819461;78;26254;-81
2021/03/29 04:06:14;;;;;;;12.53;3.60;;;;;;;11.36;100.00;102479.08;1819611;78;26752;-81
2021/03/29 04:08:45;;;;;;;10.67;3.10;;;;;;;11.37;100.00;102470.48;1819557;78;26210;-82
2021/03/29 04:11:15;;;;;;;15.97;4.00;;;;;;;11.38;100.00;102475.51;1819646;78;26218;-82
2021/03/29 04:13:45;;;;;;;12.30;3.53;;;;;;;11.35;100.00;102482.95;1821650;77;26220;-81
2021/03/29 04:16:15;;;;;;;10.67;3.40;;;;;;;11.35;100.00;102478.77;1857783;77;26215;-82
2021/03/29 04:18:45;;;;;;;9.30;3.30;;;;;;;11.36;100.00;102484.64;1857918;76;26658;-82
2021/03/29 04:21:16;;;;;;;9.53;3.43;;;;;;;11.39;100.00;102488.30;1857945;76;26276;-81
2021/03/29 04:23:46;;;;;;;13.23;4.10;;;;;;;11.37;100.00;102496.07;1857778;77;26206;-81
2021/03/29 04:26:15;;;;;;;13.97;4.00;;;;;;;11.30;100.00;102493.97;1861261;76;26316;-82
2021/03/29 04:28:45;;;;;;;11.30;3.40;;;;;;;11.37;100.00;102503.03;1874875;76;26190;-81
2021/03/29 04:31:15;;;;;;;12.83;3.50;;;;;;;11.29;100.00;102496.48;1872527;76;26637;-81
2021/03/29 04:33:45;;;;;;;10.33;3.10;;;;;;;11.32;100.00;102496.82;1873935;76;26697;-81
2021/03/29 04:36:15;;;;;;;12.50;4.70;;;;;;;11.31;100.00;102497.91;1869498;75;26654;-81
2021/03/29 04:38:44;;;;;;;12.90;3.77;;;;;;;11.27;100.00;102493.09;1869577;76;26293;-81
2021/03/29 04:41:14;;;;;;;8.13;3.33;;;;;;;11.27;100.00;102493.94;1869803;76;26182;-81
2021/03/29 04:43:44;;;;;;;13.13;3.20;;;;;;;11.31;100.00;102495.13;1869622;76;26629;-80
2021/03/29 04:46:14;;;;;;;13.53;3.57;;;;;;;11.28;100.00;102492.00;1869636;76;26602;-80
2021/03/29 04:48:44;;;;;;;12.10;3.17;;;;;;;11.29;100.00;102490.38;1873853;76;26179;-81
2021/03/29 04:51:14;;;;;;;8.70;3.63;;;;;;;11.30;100.00;102495.36;1875883;75;26279;-81
2021/03/29 04:53:44;;;;;;;10.10;3.27;;;;;;;11.30;100.00;102496.75;1876187;76;26645;-81
2021/03/29 04:56:14;;;;;;;12.93;3.60;;;;;;;11.25;100.00;102499.47;1873785;76;26199;-81
2021/03/29 04:58:44;;;;;;;10.50;3.40;;;;;;;11.24;100.00;102501.41;1873928;76;26339;-82
2021/03/29 05:01:14;;;;;;;12.37;4.00;;;;;;;11.26;100.00;102502.52;1869581;77;26638;-82
2021/03/29 05:03:44;;;;;;;10.43;4.53;;;;;;;11.24;100.00;102500.55;1873932;76;26739;-81
2021/03/29 05:06:13;;;;;;;11.97;4.07;;;;;;;11.21;100.00;102494.11;1870654;76;26665;-81
2021/03/29 05:08:43;;;;;;;9.90;3.60;;;;;;;11.19;100.00;102505.47;1875745;76;26182;-81
2021/03/29 05:11:13;;;;;;;13.53;4.60;;;;;;;11.24;100.00;102497.23;1879821;75;26182;-82
2021/03/29 05:13:43;;;;;;;10.93;3.80;;;;;;;11.22;100.00;102492.45;1869430;77;26186;-81
2021/03/29 05:16:13;;;;;;;11.93;4.00;;;;;;;11.27;100.00;102498.66;1878805;76;26198;-81
2021/03/29 05:18:43;;;;;;;9.40;3.77;;;;;;;11.25;100.00;102500.86;1871865;76;26190;-81
2021/03/29 05:21:12;;;;;;;14.73;3.97;;;;;;;11.21;100.00;102503.27;1871298;75;26179;-82
2021/03/29 05:23:42;;;;;;;13.23;4.33;;;;;;;11.25;100.00;102507.23;1871895;76;26201;-80
2021/03/29 05:26:12;;;;;;;8.90;3.87;;;;;;;11.24;100.00;102515.85;1871455;76;26638;-82
2021/03/29 05:28:42;;;;;;;10.07;3.63;;;;;;;11.22;100.00;102513.31;1862698;76;26284;-82
2021/03/29 05:31:12;;;;;;;11.77;3.83;;;;;;;11.20;100.00;102518.30;1862505;77;26178;-82
2021/03/29 05:33:42;;;;;;;9.97;3.70;;;;;;;11.19;100.00;102524.94;1859472;76;26653;-82
2021/03/29 05:36:14;;;;;;;10.13;4.00;;;;;;;11.14;100.00;102529.02;1866806;76;26661;-82
2021/03/29 05:38:45;;;;;;;10.97;4.07;;;;;;;11.16;100.00;102539.36;1865515;75;26256;-82
2021/03/29 05:41:16;;;;;;;12.20;4.00;;;;;;;11.19;100.00;102535.22;1875949;76;26189;-82
2021/03/29 05:43:46;;;;;;;7.70;3.53;;;;;;;11.23;100.00;102533.62;1876049;76;26272;-82
2021/03/29 05:46:16;;;;;;;13.83;4.70;;;;;;;11.19;100.00;102538.85;1876175;76;26186;-83
2021/03/29 05:48:46;;;;;;;11.10;4.63;;;;;;;11.14;100.00;102535.97;1872475;76;26293;-82
2021/03/29 05:51:16;;;;;;;11.70;4.07;;;;;;;11.20;100.00;102532.75;1866337;76;26642;-82
2021/03/29 05:53:46;;;;;;;12.03;4.47;;;;;;;11.19;100.00;102532.44;1875603;75;26218;-83
2021/03/29 05:56:16;;;;;;;11.13;4.70;;;;;;;11.19;100.00;102546.35;1866099;76;26656;-81
2021/03/29 05:58:56;;;;;;;15.30;4.90;;;;;;;11.15;100.00;102544.62;1876120;76;26689;-81
2021/03/29 06:01:17;;;;;;;11.73;4.33;;;;;;;11.17;100.00;102545.73;1873374;76;26320;-81
2021/03/29 06:03:47;;;;;;;11.20;4.30;;;;;;;11.18;100.00;102542.72;1867196;76;26325;-80
2021/03/29 06:06:21;;;;;;;14.30;4.20;;;;;;;11.18;100.00;102543.27;1866711;77;26179;-79
2021/03/29 06:08:53;;;;;;;15.23;4.10;;;;;;;11.26;100.00;102538.69;1862720;77;26190;-80
2021/03/29 06:11:25;;;;;;;12.60;4.20;;;;;;;11.21;100.00;102546.95;1864370;75;26245;-80
2021/03/29 06:14:16;;;;;;;10.50;4.07;;;;;;;11.23;100.00;102548.39;1867469;76;26198;-82
2021/03/29 06:17:03;;;;;;;8.97;3.90;;;;;;;11.24;100.00;102554.25;1875861;76;26198;-83
2021/03/29 06:19:49;;;;;;;13.67;4.87;;;;;;;11.19;100.00;102543.56;1868252;76;26186;-83
2021/03/29 06:22:25;;;;;;;12.47;4.13;;;;;;;11.24;100.00;102547.84;1865189;76;26343;-82
2021/03/29 06:24:58;;;;;;;11.33;4.50;;;;;;;11.20;100.00;102551.67;1875999;76;26202;-85
2021/03/29 06:27:30;;;;;;;12.13;4.23;;;;;;;11.23;100.00;102551.17;1871695;75;26250;-85
2021/03/29 06:30:19;;;;;;;12.73;4.23;;;;;;;11.24;100.00;102555.64;1867258;75;26206;-85
2021/03/29 06:33:02;;;;;;;14.77;4.57;;;;;;;11.23;100.00;102557.27;1873907;76;26741;-86
2021/03/29 06:35:36;;;;;;;10.63;3.83;;;;;;;11.28;100.00;102555.98;1865530;76;26739;-83
2021/03/29 06:38:11;;;;;;;12.70;4.80;;;;;;;11.25;100.00;102561.48;1865891;76;26207;-87
2021/03/29 06:40:45;;;;;;;12.37;4.23;;;;;;;11.23;100.00;102566.47;1857997;76;26695;-83
2021/03/29 06:43:24;;;;;;;9.80;4.47;;;;;;;11.25;100.00;102569.83;1873393;76;26276;-82
2021/03/29 06:45:56;;;;;;;10.83;4.17;;;;;;;11.29;100.00;102572.98;1868124;75;26187;-82
2021/03/29 06:48:30;;;;;;;10.33;4.03;;;;;;;11.31;100.00;102576.35;1863683;76;26270;-83
2021/03/29 06:51:09;;;;;;;7.07;3.77;;;;;;;11.31;100.00;102568.85;1876192;75;26729;-83
2021/03/29 06:53:40;;;;;;;9.40;3.67;;;;;;;11.32;100.00;102572.48;1870883;76;26295;-83
2021/03/29 06:56:29;;;;;;;12.10;3.87;;;;;;;11.35;100.00;102574.76;1858216;76;26223;-83
2021/03/29 06:59:14;;;;;;;13.70;4.23;;;;;;;11.35;100.00;102585.34;1869754;76;26260;-83
2021/03/29 07:01:50;;;;;;;13.10;3.73;;;;;;;11.38;100.00;102584.02;1875787;74;26326;-84
2021/03/29 07:04:21;;;;;;;12.10;4.07;;;;;;;11.45;100.00;102579.14;1875908;75;26622;-84
2021/03/29 07:06:52;;;;;;;13.00;4.77;;;;;;;11.44;100.00;102583.02;1870390;76;26334;-84
2021/03/29 07:09:22;;;;;;;15.10;4.67;;;;;;;11.49;100.00;102588.68;1866449;77;26291;-88
2021/03/29 07:11:53;;;;;;;11.97;4.60;;;;;;;11.54;100.00;102582.37;1862910;77;26234;-87
2021/03/29 07:14:24;;;;;;;9.97;4.40;;;;;;;11.54;100.00;102590.72;1861786;77;26238;-88
2021/03/29 07:16:56;;;;;;;14.00;4.63;;;;;;;11.56;100.00;102592.14;1867129;76;26629;-83
2021/03/29 07:19:27;;;;;;;14.53;4.73;;;;;;;11.53;100.00;102596.83;1866587;75;26193;-82
2021/03/29 07:21:57;;;;;;;12.03;3.80;;;;;;;11.59;100.00;102597.23;1871198;76;26703;-88
2021/03/29 07:24:29;;;;;;;8.73;3.63;;;;;;;11.62;100.00;102598.66;1861427;76;26260;-86
2021/03/29 07:27:02;;;;;;;11.73;4.47;;;;;;;11.63;100.00;102604.53;1868092;75;26195;-88
2021/03/29 07:29:37;;;;;;;9.40;3.50;;;;;;;11.70;100.00;102611.62;1863168;76;26316;-88
2021/03/29 07:32:08;;;;;;;13.40;4.50;;;;;;;11.68;100.00;102611.59;1859403;77;26190;-89
2021/03/29 07:34:50;;;;;;;14.40;4.53;;;;;;;11.68;100.00;102620.77;1797051;79;26215;-83
2021/03/29 07:37:32;;;;;;;7.97;3.50;;;;;;;11.68;100.00;102619.95;1796126;79;26211;-86
2021/03/29 07:40:04;;;;;;;13.20;3.93;;;;;;;11.78;100.00;102621.54;1796239;79;26269;-86
2021/03/29 07:42:39;;;;;;;11.93;3.57;;;;;;;11.80;100.00;102615.19;1796220;79;26331;-80
2021/03/29 07:45:15;;;;;;;12.30;3.87;;;;;;;11.77;100.00;102622.08;1795966;80;26249;-86
2021/03/29 07:47:52;;;;;;;9.43;3.67;;;;;;;11.90;100.00;102617.29;1796015;80;26273;-82
2021/03/29 07:50:48;;;;;;;13.00;3.80;;;;;;;11.97;100.00;102618.84;1796044;80;26269;-81
2021/03/29 07:53:22;;;;;;;8.60;3.63;;;;;;;12.04;100.00;102618.66;1821563;77;26349;-84
2021/03/29 07:55:54;;;;;;;10.83;4.53;;;;;;;11.96;100.00;102621.33;1816636;78;26657;-82
2021/03/29 07:58:26;;;;;;;10.50;3.37;;;;;;;11.97;100.00;102619.39;1862441;77;26693;-83
2021/03/29 08:01:07;;;;;;;11.70;4.00;;;;;;;11.99;100.00;102620.81;1857876;77;26274;-81
2021/03/29 08:03:57;;;;;;;6.37;3.30;;;;;;;11.97;100.00;102635.55;1862539;76;26677;-83
2021/03/29 08:06:48;;;;;;;7.70;3.27;;;;;;;12.01;100.00;102630.32;1858061;77;26200;-83
2021/03/29 08:09:23;;;;;;;10.70;3.50;;;;;;;12.39;100.00;102633.20;1870118;76;26654;-84
2021/03/29 08:12:06;;;;;;;10.67;3.23;;;;;;;12.46;100.00;102633.86;1857249;75;26261;-84
2021/03/29 08:14:45;;;;;;;17.00;4.30;;;;;;;12.71;100.00;102640.37;1862811;77;26282;-83
2021/03/29 08:17:48;;;;;;;9.10;3.33;;;;;;;12.29;100.00;102646.95;1857638;75;26713;-84
2021/03/29 08:20:24;;;;;;;11.70;3.77;;;;;;;12.22;100.00;102642.96;1866813;76;26654;-83
2021/03/29 08:23:29;;;;;;;12.57;4.30;;;;;;;12.25;100.00;102647.17;1865851;76;26363;-83
2021/03/29 08:26:19;;;;;;;13.90;3.33;;;;;;;12.22;100.00;102647.69;1869049;76;26220;-84
2021/03/29 08:29:15;;;;;;;14.47;3.57;;;;;;;12.25;100.00;102656.92;1857984;76;26809;-84
2021/03/29 08:32:17;;;;;;;10.37;3.00;;;;;;;12.26;100.00;102652.50;1874903;76;26279;-84
2021/03/29 08:34:53;;;;;;;10.30;3.27;;;;;;;12.24;100.00;102648.26;1865628;75;26227;-84
2021/03/29 08:37:29;;;;;;;7.27;3.40;;;;;;;12.32;100.00;102650.66;1876051;76;26227;-84
2021/03/29 08:40:02;;;;;;;6.73;3.10;;;;;;;12.53;100.00;102650.43;1870192;76;26626;-84
2021/03/29 08:42:34;;;;;;;8.63;3.47;;;;;;;12.43;100.00;102644.69;1857964;76;26235;-84
2021/03/29 08:45:08;;;;;;;11.27;3.70;;;;;;;12.42;100.00;102648.02;1868505;76;26214;-84
2021/03/29 08:47:40;;;;;;;10.20;3.67;;;;;;;12.56;100.00;102652.16;1875987;76;26206;-84
2021/03/29 08:50:13;;;;;;;12.07;3.73;;;;;;;12.63;100.00;102662.58;1876156;75;26223;-84
2021/03/29 08:52:47;;;;;;;7.10;3.20;;;;;;;12.62;100.00;102658.67;1875966;76;26645;-85
2021/03/29 08:55:19;;;;;;;11.30;4.13;;;;;;;12.57;100.00;102657.19;1875971;76;26194;-84
2021/03/29 08:57:51;;;;;;;9.83;5.43;;;;;;;12.58;100.00;102668.06;1876086;76;26264;-84
2021/03/29 09:00:24;;;;;;;6.97;3.50;;;;;;;12.63;100.00;102671.48;1876120;76;26178;-85
2021/03/29 09:02:54;;;;;;;10.63;3.33;;;;;;;12.62;100.00;102675.39;1865512;76;26234;-85
2021/03/29 09:05:26;;;;;;;10.10;4.17;;;;;;;12.72;100.00;102669.41;1866770;75;27123;-85
2021/03/29 09:07:56;;;;;;;11.50;3.90;;;;;;;12.74;100.00;102671.41;1867169;76;26337;-85
2021/03/29 09:10:27;;;;;;;10.20;4.03;;;;;;;12.72;100.00;102680.56;1865676;76;26276;-84
2021/03/29 09:12:59;;;;;;;8.20;3.10;;;;;;;12.72;100.00;102677.78;1876138;76;26190;-85
2021/03/29 09:15:31;;;;;;;11.73;3.87;;;;;;;12.82;100.00;102681.28;1871835;76;26696;-85
2021/03/29 09:18:03;;;;;;;7.80;2.87;;;;;;;12.81;100.00;102675.95;1864342;77;26339;-85
2021/03/29 09:20:35;;;;;;;9.07;3.23;;;;;;;12.86;100.00;102667.11;1867015;77;26317;-86
2021/03/29 09:23:06;;;;;;;9.37;3.53;;;;;;;13.00;100.00;102674.58;1862497;76;26250;-85
2021/03/29 09:25:38;;;;;;;10.47;3.10;;;;;;;13.01;100.00;102674.30;1865597;76;26233;-85
2021/03/29 09:28:13;;;;;;;7.27;3.50;;;;;;;13.04;100.00;102682.72;1876069;76;26268;-85
2021/03/29 09:30:44;;;;;;;7.23;3.63;;;;;;;13.17;100.00;102679.59;1876190;75;26371;-85
2021/03/29 09:33:15;;;;;;;7.63;3.03;;;;;;;13.12;100.00;102680.36;1865764;76;26327;-84
2021/03/29 09:35:46;;;;;;;9.87;3.57;;;;;;;13.30;100.00;102682.55;1857968;77;26323;-84
2021/03/29 09:38:18;;;;;;;10.43;3.43;;;;;;;13.42;100.00;102679.08;1872600;76;26237;-85
2021/03/29 09:40:48;;;;;;;9.43;3.63;;;;;;;13.46;100.00;102682.48;1799506;78;26269;-84
2021/03/29 09:43:23;;;;;;;9.27;3.83;;;;;;;13.50;100.00;102674.43;1795944;80;26658;-85
2021/03/29 09:45:54;;;;;;;10.10;3.47;;;;;;;13.63;100.00;102692.19;1796073;80;26265;-85
2021/03/29 09:48:27;;;;;;;7.17;3.13;;;;;;;13.63;100.00;102687.45;1795293;78;26647;-85
2021/03/29 09:50:58;;;;;;;6.63;3.33;;;;;;;13.48;100.00;102687.24;1795964;79;26289;-85
2021/03/29 09:53:34;;;;;;;10.43;4.57;;;;;;;13.44;100.00;102691.66;1796058;79;26607;-84
2021/03/29 09:56:04;;;;;;;10.60;4.37;;;;;;;13.69;100.00;102692.55;1796026;80;26187;-84
2021/03/29 09:58:37;;;;;;;7.27;3.57;;;;;;;13.88;100.00;102695.81;1795997;79;26735;-84
2021/03/29 10:01:17;;;;;;;12.07;3.60;;;;;;;13.98;100.00;102698.73;1795978;79;26637;-84
2021/03/29 10:03:53;;;;;;;13.53;3.93;;;;;;;14.36;100.00;102703.34;1795979;79;26296;-84
2021/03/29 10:06:24;;;;;;;10.70;3.50;;;;;;;14.66;100.00;102704.15;1795842;79;26288;-81
2021/03/29 10:08:58;;;;;;;9.07;3.70;;;;;;;14.84;100.00;102698.98;1795915;79;26281;-81
2021/03/29 10:11:29;;;;;;;9.40;3.50;;;;;;;14.81;100.00;102704.25;1796001;79;26744;-80
2021/03/29 10:14:07;;;;;;;9.37;3.47;;;;;;;14.73;100.00;102700.00;1795929;79;26202;-81
2021/03/29 10:16:44;;;;;;;5.10;3.03;;;;;;;14.77;100.00;102701.16;1795982;80;26774;-80
2021/03/29 10:19:16;;;;;;;8.93;3.57;;;;;;;15.01;100.00;102698.82;1795950;80;26362;-82
2021/03/29 10:22:04;;;;;;;10.80;4.43;;;;;;;15.08;100.00;102707.81;1795924;79;26199;-81
2021/03/29 10:24:37;;;;;;;8.50;3.30;;;;;;;14.95;100.00;102706.88;1785683;80;26192;-85
2021/03/29 10:27:08;;;;;;;7.60;3.73;;;;;;;15.09;100.00;102707.26;1785644;80;26254;-82
2021/03/29 10:29:40;;;;;;;12.73;3.80;;;;;;;15.06;100.00;102702.21;1793206;80;26637;-83
2021/03/29 10:32:15;;;;;;;12.50;3.70;;;;;;;14.96;100.00;102707.17;1796178;78;26312;-86
2021/03/29 10:34:46;;;;;;;6.07;3.10;;;;;;;15.20;100.00;102707.04;1796013;79;26499;-85
2021/03/29 10:37:23;;;;;;;10.53;3.70;;;;;;;15.12;100.00;102708.11;1796141;79;26206;-83
2021/03/29 10:39:55;;;;;;;7.00;3.20;;;;;;;15.09;100.00;102708.11;1796364;79;26199;-83
2021/03/29 10:42:27;;;;;;;10.20;3.60;;;;;;;15.17;100.00;102711.79;1796223;79;26332;-84
2021/03/29 10:44:57;;;;;;;9.03;3.40;;;;;;;15.17;100.00;102714.59;1796505;80;26281;-84
2021/03/29 10:47:27;;;;;;;9.80;3.37;;;;;;;15.25;100.00;102721.08;1796207;80;26262;-87
2021/03/29 10:49:58;;;;;;;8.97;3.97;;;;;;;15.41;100.00;102713.03;1796106;80;26200;-86
2021/03/29 10:52:28;;;;;;;9.27;3.97;;;;;;;15.49;100.00;102715.31;1795999;79;26207;-83
2021/03/29 10:54:57;;;;;;;9.40;3.20;;;;;;;15.39;100.00;102716.68;1796158;79;26276;-84
2021/03/29 10:57:27;;;;;;;6.87;3.40;;;;;;;15.57;100.00;102716.80;1795999;79;26264;-83
2021/03/29 10:59:57;;;;;;;9.90;3.63;;;;;;;15.68;100.00;102716.27;1795930;79;26300;-83
2021/03/29 11:02:29;;;;;;;8.27;3.30;;;;;;;15.43;100.00;102717.82;1795971;80;26243;-82
2021/03/29 11:05:00;;;;;;;10.43;3.97;;;;;;;15.36;100.00;102723.39;1795991;79;26192;-82
2021/03/29 11:07:30;;;;;;;7.37;2.90;;;;;;;15.47;100.00;102723.72;1795977;79;26187;-82
2021/03/29 11:10:00;;;;;;;5.63;3.00;;;;;;;15.59;100.00;102721.55;1795915;80;26191;-82
2021/03/29 11:12:30;;;;;;;7.63;3.50;;;;;;;15.58;100.00;102712.86;1795867;80;26191;-83
2021/03/29 11:15:00;;;;;;;10.80;3.30;;;;;;;15.49;100.00;102714.46;1795887;80;26187;-84
2021/03/29 11:17:33;;;;;;;9.13;3.90;;;;;;;15.68;100.00;102712.91;1796033;80;26211;-83
2021/03/29 11:20:02;;;;;;;7.57;3.23;;;;;;;15.85;100.00;102710.73;1825777;78;26197;-82
2021/03/29 11:22:32;;;;;;;8.67;3.50;;;;;;;15.87;100.00;102709.06;1819971;78;26210;-82
2021/03/29 11:25:03;;;;;;;8.33;3.17;;;;;;;15.83;100.00;102707.94;1862796;77;26199;-82
2021/03/29 11:27:34;;;;;;;8.77;2.63;;;;;;;15.87;100.00;102708.48;1867155;77;26234;-82
2021/03/29 11:30:08;;;;;;;5.83;3.10;;;;;;;15.92;100.00;102714.11;1867158;75;26219;-82
2021/03/29 11:32:37;;;;;;;6.93;2.97;;;;;;;16.01;100.00;102710.77;1862347;75;26253;-82
2021/03/29 11:35:08;;;;;;;8.93;3.03;;;;;;;16.11;100.00;102704.63;1865932;75;26221;-82
2021/03/29 11:37:39;;;;;;;7.40;2.87;;;;;;;15.99;100.00;102701.25;1876145;76;26724;-81